サンフランシスコ の空港の天気 - METARとTAF

サンフランシスコ国際空港 ( KSFO / SFO ) - アメリカ カリフォルニア州サンマテオ郡
飛行場実況気象(Metar)
観測時間01/19 02:56 PST (01/19 10:56 UTC)
風向・風速静穏 0m/s
視程10km以上
天気現象
全天を覆う雲 雲底高度 850m
気温15.6℃
湿度67%
気圧1027.8hPa
METARKSFO 191056Z 00000KT 10SM OVC028 16/09 A3035 RMK AO2 SLP278 T01560094 $
過去の天気等 Google飛行場航空写真 Wunderground天気予報

過去48時間のMETAR

飛行場予報(TAF)
発表時間: 1/19 01:10 PST (1/19 09:10 UTC)
予報対象時間: 19日1時 PST ~ 20日4時 PST
風向・風速南南東 2m/s
視程10km以上
天気現象弱いしゅう雨
全天の8割程度の雲 雲底高度 1070m
全天の8割程度の雲 雲底高度 1220m
全天を覆う雲 雲底高度 1520m
19日4時 PST から
風向・風速東南東 2m/s
視程10km以上
天気現象周辺でしゅう雨
全天の8割程度の雲 雲底高度 1520m
19日8時 PST から
風向・風速東南東 2m/s
視程10km以上
全天の8割程度の雲 雲底高度 1520m
19日12時 PST から
風向・風速東北東 2m/s
視程10km以上
全天の8割程度の雲 雲底高度 1520m
19日17時 PST から
風向・風速西 3m/s
視程10km以上
全天を覆う雲 雲底高度 1220m
19日23時 PST から
風向・風速不定 2m/s
視程10km以上
全天を覆う雲 雲底高度 910m
KSFO 190910Z 1909/2012 15004KT P6SM -SHRA BKN035 BKN040 OVC050
FM191200 12004KT P6SM VCSH BKN050
FM191600 11003KT P6SM BKN050
FM192000 07004KT P6SM BKN050
FM200100 28005KT P6SM OVC040
FM200700 VRB03KT P6SM OVC030